Time;durP1;ratioP1;P1;durP2;ratioP2;P2;SDS_P1;SDS_P2;PMS_P1;PMS_P2;Temp;Humidity;BMP_temperature;BMP_pressure;BME280_temperature;BME280_humidity;BME280_pressure;Samples;Min_cycle;Max_cycle;Signal;HPM_P1;HPM_P2
2024/01/13 00:03:12;;;;;;;6.90;3.47;;;;;;;1.35;100.00;102800.28;4936082;29;20095;-88
2024/01/13 00:06:17;;;;;;;6.97;3.53;;;;;;;1.58;100.00;102826.25;5111164;23;20114;-88
2024/01/13 00:12:42;;;;;;;5.17;3.10;;;;;;;1.58;100.00;102825.38;4937942;29;20167;-88
2024/01/13 00:15:32;;;;;;;5.22;3.10;;;;;;;1.58;100.00;102825.38;4938035;29;20319;-88
2024/01/13 00:18:09;;;;;;;5.07;3.00;;;;;;;1.42;100.00;102792.97;4936643;29;20043;-88
2024/01/13 00:20:53;;;;;;;5.75;3.03;;;;;;;1.29;100.00;102768.41;4964566;23;20110;-88
2024/01/13 00:23:31;;;;;;;7.25;3.45;;;;;;;1.56;100.00;102812.50;4935907;29;20035;-88
2024/01/13 00:25:56;;;;;;;6.18;3.25;;;;;;;1.53;100.00;102804.66;5126925;23;20077;-88
2024/01/13 00:28:28;;;;;;;5.35;2.90;;;;;;;1.56;100.00;102806.50;4954419;29;20031;-89
2024/01/13 00:31:08;;;;;;;4.50;3.00;;;;;;;1.42;100.00;102791.28;4953902;29;20028;-89
2024/01/13 00:33:43;;;;;;;5.20;3.05;;;;;;;1.47;100.00;102788.97;4957187;29;20042;-88
2024/01/13 00:36:12;;;;;;;4.78;2.92;;;;;;;1.56;100.00;102806.50;5030060;23;20095;-88
2024/01/13 00:38:38;;;;;;;6.97;3.40;;;;;;;1.54;100.00;102799.59;4958551;29;20243;-88
2024/01/13 00:41:04;;;;;;;7.32;3.55;;;;;;;1.54;100.00;102797.06;4958608;29;20031;-88
2024/01/13 00:43:29;;;;;;;8.55;3.67;;;;;;;1.57;100.00;102793.78;4957826;29;20047;-88
2024/01/13 00:45:55;;;;;;;5.47;3.08;;;;;;;1.58;100.00;102794.66;4958057;29;20110;-89
2024/01/13 00:48:20;;;;;;;6.30;3.30;;;;;;;1.58;100.00;102789.53;4958277;29;20031;-88
2024/01/13 00:50:45;;;;;;;5.07;3.10;;;;;;;1.47;100.00;102771.03;4957337;29;20031;-87
2024/01/13 00:53:11;;;;;;;6.45;3.38;;;;;;;1.49;100.00;102774.56;4957974;29;20079;-87
2024/01/13 00:55:40;;;;;;;5.30;3.20;;;;;;;1.51;100.00;102778.09;4956919;29;20027;-88
2024/01/13 00:58:05;;;;;;;6.30;3.33;;;;;;;1.52;100.00;102774.75;4958584;29;20078;-88
2024/01/13 01:00:33;;;;;;;6.57;3.28;;;;;;;1.56;100.00;102783.47;4958391;29;20023;-88
2024/01/13 01:02:59;;;;;;;6.95;3.50;;;;;;;1.53;100.00;102774.81;4957399;29;20038;-88
2024/01/13 01:05:24;;;;;;;6.20;3.42;;;;;;;1.51;100.00;102771.31;4958013;29;20027;-88
2024/01/13 01:07:49;;;;;;;5.60;3.30;;;;;;;1.53;100.00;102767.13;4957593;29;20035;-88
2024/01/13 01:10:14;;;;;;;5.38;3.13;;;;;;;1.53;100.00;102768.81;4957009;29;20034;-88
2024/01/13 01:12:43;;;;;;;7.55;3.80;;;;;;;1.51;100.00;102765.31;4957618;29;20062;-88
2024/01/13 01:15:08;;;;;;;5.43;3.10;;;;;;;1.52;100.00;102762.81;4958125;29;20035;-89
2024/01/13 01:17:34;;;;;;;5.95;3.60;;;;;;;1.44;100.00;102747.88;4957219;29;20384;-88
2024/01/13 01:19:59;;;;;;;5.15;3.05;;;;;;;1.50;100.00;102750.75;4958173;29;20023;-88
2024/01/13 01:22:24;;;;;;;6.18;3.35;;;;;;;1.50;100.00;102743.97;4957234;29;20059;-88
2024/01/13 01:25:05;;;;;;;4.47;2.88;;;;;;;1.42;100.00;102729.88;4955510;23;20082;-87
2024/01/13 01:27:42;;;;;;;6.28;3.35;;;;;;;1.41;100.00;102728.09;4938587;29;20031;-88
2024/01/13 01:30:23;;;;;;;4.75;2.95;;;;;;;1.47;100.00;102731.00;4938605;29;20128;-89
2024/01/13 01:33:08;;;;;;;5.72;2.90;;;;;;;1.57;100.00;102745.16;4937422;29;20031;-87
2024/01/13 01:35:48;;;;;;;5.60;3.17;;;;;;;1.44;100.00;102723.16;4938069;29;20024;-88
2024/01/13 01:38:20;;;;;;;5.90;3.28;;;;;;;1.49;100.00;102725.94;5169788;23;20142;-88
2024/01/13 01:41:07;;;;;;;4.60;3.00;;;;;;;1.57;100.00;102728.91;4955932;29;20035;-88
2024/01/13 01:44:05;;;;;;;5.95;3.13;;;;;;;1.33;100.00;102691.91;4956356;28;20027;-88
2024/01/13 01:46:31;;;;;;;4.63;2.85;;;;;;;1.54;100.00;102734.75;4956333;29;20047;-88
2024/01/13 01:49:16;;;;;;;5.03;3.30;;;;;;;1.56;100.00;102740.84;4957309;29;20038;-88
2024/01/13 01:52:15;;;;;;;6.30;3.42;;;;;;;1.57;100.00;102734.03;4937922;29;20119;-87
2024/01/13 01:54:53;;;;;;;6.25;3.33;;;;;;;1.47;100.00;102710.53;4937176;29;20396;-88
2024/01/13 02:00:39;;;;;;;4.65;2.97;;;;;;;1.46;100.00;102716.44;4937623;29;20054;-88
2024/01/13 02:03:58;;;;;;;5.13;3.13;;;;;;;1.33;100.00;102691.00;4937732;29;20485;-88
2024/01/13 02:06:24;;;;;;;5.13;3.22;;;;;;;1.50;100.00;102712.34;4867835;29;20480;-88
2024/01/13 02:08:55;;;;;;;4.93;3.10;;;;;;;1.35;100.00;102685.16;4937310;29;20048;-88
2024/01/13 02:11:22;;;;;;;4.22;2.85;;;;;;;1.47;100.00;102700.28;4937582;29;20291;-88
2024/01/13 02:13:48;;;;;;;4.72;3.08;;;;;;;1.56;100.00;102710.13;4936778;29;20063;-88
2024/01/13 02:16:43;;;;;;;5.10;2.80;;;;;;;1.58;100.00;102712.75;4937225;29;20461;-88
2024/01/13 02:19:10;;;;;;;4.60;3.00;;;;;;;1.48;100.00;102689.25;4841311;29;20085;-88
2024/01/13 02:21:53;;;;;;;4.53;3.00;;;;;;;1.37;100.00;102667.34;4858424;29;20395;-88
2024/01/13 02:24:30;;;;;;;5.72;3.10;;;;;;;1.34;100.00;102659.50;4860462;29;20187;-88
2024/01/13 02:30:17;;;;;;;4.20;2.88;;;;;;;1.51;100.00;102668.06;4860622;29;20539;-88
2024/01/13 02:32:51;;;;;;;5.07;3.03;;;;;;;1.60;100.00;102683.88;4860060;29;20030;-88
2024/01/13 02:35:17;;;;;;;4.95;3.03;;;;;;;1.41;100.00;102645.34;4868987;29;20029;-88
2024/01/13 02:40:35;;;;;;;5.32;3.30;;;;;;;1.59;100.00;102682.13;4963380;23;20058;-88
2024/01/13 02:43:01;;;;;;;5.22;3.30;;;;;;;1.50;100.00;102656.97;5260823;23;20051;-88
2024/01/13 02:45:29;;;;;;;6.53;3.20;;;;;;;1.39;100.00;102635.91;4956210;29;20027;-88
2024/01/13 02:48:33;;;;;;;5.35;3.30;;;;;;;1.56;100.00;102653.84;4955822;29;20034;-89
2024/01/13 02:51:27;;;;;;;5.03;3.13;;;;;;;1.56;100.00;102656.41;4956128;29;20035;-88
2024/01/13 02:53:53;;;;;;;5.50;3.30;;;;;;;1.59;100.00;102661.66;4956135;29;20027;-88
2024/01/13 02:56:37;;;;;;;6.63;3.50;;;;;;;1.52;100.00;102634.84;4954474;28;20082;-88
2024/01/13 02:59:20;;;;;;;6.45;3.60;;;;;;;1.50;100.00;102633.94;4955525;29;20057;-88
2024/01/13 03:04:44;;;;;;;5.72;3.47;;;;;;;1.55;100.00;102631.59;4955577;29;20097;-88
2024/01/13 03:07:12;;;;;;;6.35;3.80;;;;;;;1.43;100.00;102606.25;4955640;29;20106;-88
2024/01/13 03:09:46;;;;;;;5.85;3.28;;;;;;;1.47;100.00;102618.41;4954579;29;20023;-88
2024/01/13 03:12:12;;;;;;;6.63;3.50;;;;;;;1.55;100.00;102636.72;4962718;23;20090;-88
2024/01/13 03:14:38;;;;;;;7.13;3.95;;;;;;;1.51;100.00;102632.22;4955557;29;20127;-87
2024/01/13 03:17:03;;;;;;;8.55;4.22;;;;;;;1.44;100.00;102613.13;4955196;29;20027;-88
2024/01/13 03:19:29;;;;;;;6.80;4.00;;;;;;;1.43;100.00;102607.94;4955593;29;20038;-88
2024/01/13 03:21:55;;;;;;;9.20;5.00;;;;;;;1.44;100.00;102594.34;4955572;29;20023;-87
2024/01/13 03:24:20;;;;;;;8.48;4.88;;;;;;;1.46;100.00;102597.88;4955146;29;20131;-88
2024/01/13 03:26:45;;;;;;;8.25;4.53;;;;;;;1.44;100.00;102586.69;4955299;29;20110;-88
2024/01/13 03:29:11;;;;;;;10.02;5.30;;;;;;;1.47;100.00;102584.25;4955135;29;20027;-88
2024/01/13 03:31:36;;;;;;;11.02;5.70;;;;;;;1.49;100.00;102598.00;4954925;29;20464;-88
2024/01/13 03:34:04;;;;;;;11.80;5.97;;;;;;;1.44;100.00;102591.78;4955952;29;20023;-88
2024/01/13 03:36:29;;;;;;;9.98;4.97;;;;;;;1.44;100.00;102576.44;4956094;29;20031;-88
2024/01/13 03:38:56;;;;;;;8.45;4.68;;;;;;;1.42;100.00;102570.38;4955025;29;20016;-88
2024/01/13 03:41:22;;;;;;;8.60;4.57;;;;;;;1.51;100.00;102579.38;4955195;29;20043;-88
2024/01/13 03:43:51;;;;;;;7.55;4.40;;;;;;;1.49;100.00;102580.09;4954881;29;20046;-88
2024/01/13 03:46:19;;;;;;;6.82;4.10;;;;;;;1.49;100.00;102564.75;4954999;29;20063;-87
2024/01/13 03:48:50;;;;;;;8.25;4.63;;;;;;;1.44;100.00;102553.41;4937447;29;20047;-88
2024/01/13 03:51:17;;;;;;;8.35;4.50;;;;;;;1.28;100.00;102532.16;4954668;29;20027;-87
2024/01/13 03:53:51;;;;;;;8.90;4.78;;;;;;;1.37;100.00;102545.41;4954728;29;20039;-88
2024/01/13 03:56:35;;;;;;;9.10;4.50;;;;;;;1.36;100.00;102535.13;4955143;29;20034;-88
2024/01/13 03:59:04;;;;;;;6.32;3.90;;;;;;;1.45;100.00;102544.94;4954335;29;20027;-88
2024/01/13 04:01:47;;;;;;;7.80;4.63;;;;;;;1.35;100.00;102529.09;4955193;29;20019;-89
2024/01/13 04:04:19;;;;;;;9.10;4.80;;;;;;;1.46;100.00;102539.88;4955413;29;20035;-88
2024/01/13 04:06:44;;;;;;;7.90;4.20;;;;;;;1.50;100.00;102544.38;4962591;23;20059;-88
2024/01/13 04:09:09;;;;;;;6.80;4.15;;;;;;;1.54;100.00;102550.50;4958709;29;20023;-87
2024/01/13 04:11:35;;;;;;;6.50;4.00;;;;;;;1.53;100.00;102553.88;4958521;29;20035;-88
2024/01/13 04:20:13;;;;;;;5.45;3.53;;;;;;;1.57;100.00;102536.97;5032596;23;20066;-86
2024/01/13 04:22:53;;;;;;;6.07;3.50;;;;;;;1.47;100.00;102527.97;4918281;29;20126;-86
2024/01/13 04:25:22;;;;;;;5.07;3.20;;;;;;;1.39;100.00;102509.69;4918268;29;20046;-87
2024/01/13 04:28:05;;;;;;;5.38;3.35;;;;;;;1.57;100.00;102530.19;4903860;29;20047;-87
2024/01/13 04:30:42;;;;;;;4.30;2.90;;;;;;;1.57;100.00;102535.31;4899751;29;20039;-87
2024/01/13 04:33:25;;;;;;;3.90;2.75;;;;;;;1.36;100.00;102494.19;4899240;29;20040;-87
2024/01/13 04:39:17;;;;;;;3.10;2.55;;;;;;;1.46;100.00;102516.00;4900154;29;20036;-86
2024/01/13 04:45:40;;;;;;;3.60;2.75;;;;;;;1.31;100.00;102491.41;4880971;29;20037;-86
2024/01/13 04:48:21;;;;;;;5.03;2.83;;;;;;;1.47;100.00;102508.38;4880446;29;20029;-88
2024/01/13 04:50:55;;;;;;;3.10;2.40;;;;;;;1.39;100.00;102505.44;4879132;29;20379;-86
2024/01/13 04:53:30;;;;;;;2.85;2.40;;;;;;;1.45;100.00;102509.97;4880304;29;20045;-86
2024/01/13 04:56:17;;;;;;;3.10;2.40;;;;;;;1.55;100.00;102521.56;4879569;29;20041;-87
2024/01/13 04:58:52;;;;;;;3.58;2.53;;;;;;;1.35;100.00;102490.72;4880390;29;20033;-86
2024/01/13 05:01:32;;;;;;;4.25;2.50;;;;;;;1.37;100.00;102490.81;4877727;29;20241;-87
2024/01/13 05:04:13;;;;;;;5.95;3.33;;;;;;;1.45;100.00;102512.53;4879453;29;20055;-87
2024/01/13 05:06:44;;;;;;;4.70;2.90;;;;;;;1.38;100.00;102501.13;4879872;29;20057;-86
2024/01/13 05:09:19;;;;;;;4.30;2.90;;;;;;;1.33;100.00;102492.34;4879955;29;20037;-86
2024/01/13 05:11:53;;;;;;;4.22;2.75;;;;;;;1.45;100.00;102504.00;4879487;29;20029;-86
2024/01/13 05:14:21;;;;;;;3.13;2.47;;;;;;;1.36;100.00;102482.25;4880339;29;20156;-87
2024/01/13 05:16:52;;;;;;;2.92;2.22;;;;;;;1.46;100.00;102500.63;4933961;29;20047;-87
2024/01/13 05:19:18;;;;;;;3.03;2.35;;;;;;;1.37;100.00;102488.25;4942976;29;20082;-87
2024/01/13 05:21:43;;;;;;;3.50;2.47;;;;;;;1.52;100.00;102521.41;4957813;29;20493;-86
2024/01/13 05:24:14;;;;;;;3.85;2.50;;;;;;;1.33;100.00;102487.25;4957180;29;20027;-87
2024/01/13 05:26:48;;;;;;;3.45;2.50;;;;;;;1.47;100.00;102503.25;4956730;29;20483;-86
2024/01/13 05:29:29;;;;;;;5.07;3.10;;;;;;;1.45;100.00;102497.19;4957632;29;20027;-86
2024/01/13 05:32:20;;;;;;;6.65;3.45;;;;;;;1.34;100.00;102480.44;4956894;29;20027;-87
2024/01/13 05:35:04;;;;;;;5.72;3.20;;;;;;;1.54;100.00;102510.41;4882535;29;20042;-85
2024/01/13 05:37:51;;;;;;;5.15;3.10;;;;;;;1.56;100.00;102507.06;4957596;29;20027;-87
2024/01/13 05:40:27;;;;;;;4.43;2.88;;;;;;;1.48;100.00;102491.34;4957142;29;20043;-87
2024/01/13 05:46:16;;;;;;;4.88;3.17;;;;;;;1.48;100.00;102499.00;4952092;29;20046;-86
2024/01/13 05:49:00;;;;;;;5.38;3.08;;;;;;;1.46;100.00;102487.84;4956664;29;20024;-87
2024/01/13 05:51:25;;;;;;;5.45;3.20;;;;;;;1.54;100.00;102499.31;4956966;29;20361;-88
2024/01/13 05:54:09;;;;;;;4.28;2.80;;;;;;;1.35;100.00;102467.69;4957545;29;20106;-87
2024/01/13 05:56:55;;;;;;;9.80;4.90;;;;;;;1.54;100.00;102504.44;4957168;29;20070;-87
2024/01/13 05:59:29;;;;;;;8.80;4.30;;;;;;;1.37;100.00;102484.00;4956189;29;20036;-86
2024/01/13 06:02:16;;;;;;;9.50;4.88;;;;;;;1.53;100.00;102521.47;4956669;29;20027;-87
2024/01/13 06:04:57;;;;;;;10.68;4.93;;;;;;;1.44;100.00;102499.69;4957012;29;20042;-87
2024/01/13 06:07:34;;;;;;;9.98;5.00;;;;;;;1.35;100.00;102497.53;4956852;29;20388;-87
2024/01/13 06:10:18;;;;;;;12.10;5.50;;;;;;;1.36;100.00;102491.63;4956851;29;20074;-87
2024/01/13 06:12:47;;;;;;;11.32;5.60;;;;;;;1.46;100.00;102500.63;4955866;29;20039;-87
2024/01/13 06:15:12;;;;;;;11.25;5.07;;;;;;;1.37;100.00;102478.03;4956709;29;20055;-87
2024/01/13 06:22:10;;;;;;;12.05;5.43;;;;;;;1.55;100.00;102485.72;4936977;29;20054;-87
2024/01/13 06:25:02;;;;;;;11.90;5.40;;;;;;;1.54;100.00;102476.28;4936904;29;20036;-86
2024/01/13 06:27:39;;;;;;;13.77;5.90;;;;;;;1.38;100.00;102442.28;4936527;29;20044;-87
2024/01/13 06:30:06;;;;;;;14.35;6.40;;;;;;;1.54;100.00;102469.47;4937195;29;20031;-87
2024/01/13 06:32:44;;;;;;;;;;;;;;;1.53;100.00;102452.38;4937613;29;20024;-87
2024/01/13 06:35:40;;;;;;;16.23;7.95;;;;;;;1.54;100.00;102443.88;4936426;29;20368;-86
2024/01/13 06:38:17;;;;;;;17.10;7.57;;;;;;;1.44;100.00;102436.56;4937568;29;20035;-87
2024/01/13 06:40:58;;;;;;;16.00;7.18;;;;;;;1.37;100.00;102439.66;4953649;29;20171;-86
2024/01/13 06:43:23;;;;;;;15.80;7.40;;;;;;;1.34;100.00;102426.72;4956077;29;20031;-87
2024/01/13 06:45:48;;;;;;;18.23;8.82;;;;;;;1.33;100.00;102419.84;4955580;28;20502;-88
2024/01/13 06:48:14;;;;;;;17.00;8.23;;;;;;;1.40;100.00;102437.25;4955813;28;20091;-89
2024/01/13 06:50:51;;;;;;;17.88;8.05;;;;;;;1.31;100.00;102419.78;4956009;29;20518;-85
2024/01/13 06:56:48;;;;;;;17.88;8.30;;;;;;;1.32;100.00;102411.28;4841038;29;20121;-90
2024/01/13 06:59:31;;;;;;;17.17;7.95;;;;;;;1.28;100.00;102382.94;4841486;29;20120;-87
2024/01/13 07:05:23;;;;;;;19.77;9.40;;;;;;;1.43;100.00;102406.69;4841425;29;20137;-85
2024/01/13 07:08:05;;;;;;;19.42;10.02;;;;;;;1.28;100.00;102376.13;4840978;29;20069;-84
2024/01/13 07:14:02;;;;;;;18.73;9.20;;;;;;;1.51;100.00;102391.69;4822720;29;20049;-86
2024/01/13 07:16:42;;;;;;;19.63;9.10;;;;;;;1.32;100.00;102360.13;4822624;29;20038;-86
2024/01/13 07:19:29;;;;;;;18.48;8.90;;;;;;;1.33;100.00;102361.91;4896821;23;20534;-88
2024/01/13 07:22:01;;;;;;;;;;;;;;;1.52;100.00;102394.31;4955882;29;20058;-88
2024/01/13 07:24:32;;;;;;;19.00;9.70;;;;;;;1.44;100.00;102374.31;4954746;29;19914;-86
2024/01/13 07:27:20;;;;;;;20.73;9.93;;;;;;;1.51;100.00;102387.47;4955331;29;20038;-86
2024/01/13 07:30:15;;;;;;;18.95;8.98;;;;;;;1.43;100.00;102370.84;4954634;29;20042;-86
2024/01/13 07:32:51;;;;;;;19.08;9.40;;;;;;;1.41;100.00;102359.66;5010017;23;20090;-87
2024/01/13 07:35:26;;;;;;;18.40;8.80;;;;;;;1.41;100.00;102364.78;4955680;29;20033;-86
2024/01/13 07:38:04;;;;;;;18.85;8.85;;;;;;;1.29;100.00;102346.31;4953410;29;20075;-86
2024/01/13 07:40:51;;;;;;;18.15;8.77;;;;;;;1.50;100.00;102389.94;4955391;28;20054;-86
2024/01/13 07:43:16;;;;;;;18.35;9.00;;;;;;;1.40;100.00;102365.63;4954851;29;20178;-87
2024/01/13 07:45:41;;;;;;;18.42;9.52;;;;;;;1.43;100.00;102360.63;4954366;29;20106;-87
2024/01/13 07:48:31;;;;;;;20.77;10.90;;;;;;;1.50;100.00;102377.13;4955700;29;20071;-86
2024/01/13 07:50:59;;;;;;;20.50;9.93;;;;;;;1.25;100.00;102324.81;4953761;29;20071;-85
2024/01/13 07:53:47;;;;;;;19.67;9.20;;;;;;;1.51;100.00;102361.88;4955036;29;20050;-87
2024/01/13 07:56:35;;;;;;;17.48;8.02;;;;;;;1.53;100.00;102349.16;4948829;28;20078;-85
2024/01/13 07:59:31;;;;;;;18.83;8.85;;;;;;;1.54;100.00;102340.66;4945170;29;20110;-87
2024/01/13 08:02:05;;;;;;;;;;;;;;;1.54;100.00;102345.78;4932243;29;20039;-87
2024/01/13 08:08:15;;;;;;;18.45;8.40;;;;;;;1.48;100.00;102323.34;4930630;29;20044;-85
2024/01/13 08:11:00;;;;;;;19.13;8.95;;;;;;;1.54;100.00;102330.44;4932836;29;20123;-87
2024/01/13 08:13:25;;;;;;;18.73;9.18;;;;;;;1.39;100.00;102292.22;4913553;29;20052;-86
2024/01/13 08:16:29;;;;;;;20.45;10.05;;;;;;;1.55;100.00;102332.19;4914310;29;20036;-87
2024/01/13 08:19:15;;;;;;;22.80;12.25;;;;;;;1.55;100.00;102327.06;4912798;29;20138;-86
2024/01/13 08:22:04;;;;;;;22.20;11.80;;;;;;;1.55;100.00;102324.50;4913311;29;20040;-85
2024/01/13 08:24:50;;;;;;;22.17;11.23;;;;;;;1.56;100.00;102305.78;4910498;29;20469;-86
2024/01/13 08:27:28;;;;;;;21.50;10.82;;;;;;;1.39;100.00;102276.88;4911510;29;20107;-85
2024/01/13 08:29:56;;;;;;;23.42;12.38;;;;;;;1.37;100.00;102276.78;4911959;29;20421;-85
2024/01/13 08:33:20;;;;;;;22.48;12.25;;;;;;;1.58;100.00;102319.50;4912116;29;20049;-85
2024/01/13 08:35:52;;;;;;;23.25;12.50;;;;;;;1.45;100.00;102291.63;4912933;29;20115;-85
2024/01/13 08:38:21;;;;;;;21.17;10.43;;;;;;;1.48;100.00;102295.19;4914077;29;20055;-86
2024/01/13 08:43:27;;;;;;;19.75;9.68;;;;;;;1.42;100.00;102287.22;4933204;29;20519;-85
2024/01/13 08:46:02;;;;;;;20.67;10.52;;;;;;;1.48;100.00;102310.56;4934809;29;20489;-85
2024/01/13 08:48:45;;;;;;;21.70;11.05;;;;;;;1.49;100.00;102307.19;4933994;29;20106;-85
2024/01/13 08:54:03;;;;;;;21.95;11.20;;;;;;;1.55;100.00;102304.03;4857928;29;20128;-86
2024/01/13 08:56:37;;;;;;;20.13;10.07;;;;;;;1.41;100.00;102274.38;4860717;29;20383;-85
2024/01/13 08:59:47;;;;;;;20.88;10.70;;;;;;;1.67;100.00;102327.63;4933106;23;20744;-84
2024/01/13 09:02:45;;;;;;;23.42;12.18;;;;;;;1.43;100.00;102276.19;4941410;29;20036;-85
2024/01/13 09:05:27;;;;;;;22.10;11.40;;;;;;;1.44;100.00;102283.06;4938741;29;20039;-85
2024/01/13 09:07:59;;;;;;;23.67;12.27;;;;;;;1.49;100.00;102290.94;4902423;29;20070;-85
2024/01/13 09:10:42;;;;;;;21.75;11.60;;;;;;;1.63;100.00;102310.38;4919780;29;20556;-85
2024/01/13 09:13:10;;;;;;;22.25;11.43;;;;;;;1.65;100.00;102307.88;4995952;23;20055;-85
2024/01/13 09:15:45;;;;;;;22.90;12.13;;;;;;;1.58;100.00;102306.72;4937008;29;20035;-85
2024/01/13 09:20:57;;;;;;;23.85;12.70;;;;;;;1.60;100.00;102297.44;4957159;29;20067;-85
2024/01/13 09:24:17;;;;;;;22.90;12.27;;;;;;;1.76;100.00;102318.59;4956857;29;20102;-85
2024/01/13 09:26:57;;;;;;;21.70;11.02;;;;;;;1.63;100.00;102294.16;4842417;29;20049;-85
2024/01/13 09:32:57;;;;;;;23.48;12.27;;;;;;;1.61;100.00;102293.19;4812918;29;20111;-84
2024/01/13 09:36:45;;;;;;;;;;;;;;;;;;;;;
2024/01/13 09:46:01;;;;;;;20.35;9.80;;;;;;;1.78;100.00;102299.06;4788023;30;20060;-85
2024/01/13 09:49:02;;;;;;;18.92;9.18;;;;;;;1.84;100.00;102320.72;4787572;30;20498;-85
2024/01/13 09:52:01;;;;;;;18.50;8.88;;;;;;;1.66;100.00;102278.91;4786947;30;20552;-85
2024/01/13 09:55:17;;;;;;;20.42;10.27;;;;;;;1.83;100.00;102298.47;4780364;30;20130;-85
2024/01/13 09:57:49;;;;;;;21.48;10.50;;;;;;;1.61;100.00;102262.50;4786559;30;20058;-87
2024/01/13 10:00:15;;;;;;;20.80;10.48;;;;;;;1.70;100.00;102261.19;4785442;30;20043;-84
2024/01/13 10:02:40;;;;;;;24.10;13.57;;;;;;;1.61;100.00;102239.47;4796543;29;20502;-85
2024/01/13 10:05:36;;;;;;;23.88;13.10;;;;;;;1.87;100.00;102285.78;4840462;29;20093;-85
2024/01/13 10:08:57;;;;;;;23.40;12.50;;;;;;;1.88;100.00;102287.53;4841864;29;20109;-85
2024/01/13 10:22:15;;;;;;;22.27;12.00;;;;;;;1.68;100.00;102246.59;4918187;29;20104;-85
2024/01/13 10:24:59;;;;;;;20.13;10.38;;;;;;;1.66;100.00;102243.97;4917812;29;20042;-85
2024/01/13 10:27:44;;;;;;;21.15;10.68;;;;;;;1.90;100.00;102279.13;4917151;29;20079;-85
2024/01/13 10:30:21;;;;;;;19.67;10.10;;;;;;;1.84;100.00;102266.06;4917720;29;20032;-84
2024/01/13 10:35:21;;;;;;;20.40;10.77;;;;;;;1.89;100.00;102266.25;4934785;29;20560;-84
2024/01/13 10:37:49;;;;;;;19.13;10.27;;;;;;;1.92;100.00;102263.81;4936945;29;20027;-87
2024/01/13 10:40:14;;;;;;;19.45;10.18;;;;;;;1.92;100.00;102264.69;4936099;29;20034;-85
2024/01/13 10:42:45;;;;;;;18.77;9.25;;;;;;;1.96;100.00;102269.16;4936479;29;20506;-85
2024/01/13 10:47:51;;;;;;;18.83;9.50;;;;;;;1.92;100.00;102254.44;5829349;23;20166;-85
2024/01/13 10:50:17;;;;;;;20.23;11.02;;;;;;;1.94;100.00;102257.09;4955939;29;20114;-85
2024/01/13 10:53:04;;;;;;;20.15;11.15;;;;;;;1.96;100.00;102252.94;4955531;29;20023;-84
2024/01/13 10:55:30;;;;;;;;;;;;;;;1.95;100.00;102246.91;4955202;29;20468;-85
2024/01/13 10:58:01;;;;;;;20.00;9.98;;;;;;;1.94;100.00;102239.16;4955395;29;20331;-85
2024/01/13 11:00:30;;;;;;;19.20;10.05;;;;;;;1.93;100.00;102238.28;4954787;29;20055;-84
2024/01/13 11:02:57;;;;;;;20.25;10.93;;;;;;;1.91;100.00;102229.69;4955191;29;20050;-84
2024/01/13 11:05:29;;;;;;;18.55;9.57;;;;;;;1.88;100.00;102216.75;4955541;29;20034;-84
2024/01/13 11:07:55;;;;;;;17.10;8.90;;;;;;;1.97;100.00;102229.06;4954509;29;20031;-85
2024/01/13 11:13:04;;;;;;;20.25;11.07;;;;;;;1.97;100.00;102217.13;5086146;23;20066;-85
2024/01/13 11:15:35;;;;;;;19.55;10.07;;;;;;;1.99;100.00;102224.84;4935667;29;20392;-85
2024/01/13 11:18:02;;;;;;;18.63;9.55;;;;;;;1.95;100.00;102211.06;4936221;29;20110;-85
2024/01/13 11:20:30;;;;;;;17.90;8.93;;;;;;;2.00;100.00;102221.50;4937792;29;20028;-85
2024/01/13 11:22:59;;;;;;;19.25;10.25;;;;;;;1.97;100.00;102212.00;4936813;29;20066;-85
2024/01/13 11:25:28;;;;;;;18.48;9.18;;;;;;;1.99;100.00;102202.72;4936762;29;20028;-86
2024/01/13 11:28:01;;;;;;;20.27;11.23;;;;;;;1.99;100.00;102207.84;4936269;29;20385;-84
2024/01/13 11:30:29;;;;;;;19.33;9.80;;;;;;;2.00;100.00;102211.25;4935030;29;20035;-85
2024/01/13 11:32:54;;;;;;;19.83;10.55;;;;;;;2.00;100.00;102216.38;4935984;29;20392;-85
2024/01/13 11:35:22;;;;;;;21.73;11.90;;;;;;;1.97;100.00;102208.59;4935979;29;20031;-86
2024/01/13 11:37:54;;;;;;;21.38;11.02;;;;;;;1.92;100.00;102202.38;4935989;29;20031;-86
2024/01/13 11:40:30;;;;;;;19.83;10.93;;;;;;;1.99;100.00;102217.19;4916914;29;20457;-87
2024/01/13 11:43:03;;;;;;;20.27;11.20;;;;;;;2.00;100.00;102208.69;4916323;29;20047;-89
2024/01/13 11:45:41;;;;;;;19.67;10.95;;;;;;;1.97;100.00;102195.78;4917191;29;20533;-87
2024/01/13 11:48:31;;;;;;;19.35;10.25;;;;;;;2.00;100.00;102193.31;4916635;29;20366;-87
2024/01/13 11:50:59;;;;;;;18.15;9.13;;;;;;;2.00;100.00;102188.19;4916306;29;20063;-87
2024/01/13 11:53:35;;;;;;;18.40;9.20;;;;;;;2.02;100.00;102195.97;4916799;29;20031;-87
2024/01/13 11:56:03;;;;;;;18.45;9.23;;;;;;;2.00;100.00;102190.75;4916511;29;20390;-87
2024/01/13 11:58:29;;;;;;;18.90;9.57;;;;;;;2.01;100.00;102187.41;4916088;29;20083;-87
2024/01/13 12:06:49;;;;;;;18.67;9.75;;;;;;;2.02;100.00;102175.47;5053983;23;20054;-87
2024/01/13 12:13:01;;;;;;;17.63;8.50;;;;;;;1.88;100.00;102139.03;4913949;29;20087;-87
2024/01/13 12:15:35;;;;;;;18.08;8.55;;;;;;;1.96;100.00;102148.81;4914359;29;20091;-87
2024/01/13 12:18:03;;;;;;;17.67;8.82;;;;;;;1.86;100.00;102133.88;4954304;28;20043;-87
2024/01/13 12:20:54;;;;;;;;;;;;;;;;;;;;;
2024/01/13 12:27:19;;;;;;;18.13;9.15;;;;;;;1.85;100.00;102099.72;4954241;29;20046;-87
2024/01/13 12:30:08;;;;;;;17.92;8.45;;;;;;;1.85;100.00;102096.28;4958917;29;20027;-87
2024/01/13 12:32:35;;;;;;;17.60;8.25;;;;;;;2.05;100.00;102120.13;5374493;23;20058;-87
2024/01/13 12:35:02;;;;;;;18.67;8.73;;;;;;;2.08;100.00;102114.25;4958230;29;20449;-86
2024/01/13 12:37:27;;;;;;;17.63;8.48;;;;;;;2.06;100.00;102111.66;4957530;29;20039;-86
2024/01/13 12:39:53;;;;;;;18.42;8.50;;;;;;;2.09;100.00;102126.25;4957616;29;20119;-85
2024/01/13 12:42:18;;;;;;;18.33;9.23;;;;;;;2.04;100.00;102128.63;4958181;29;20030;-86
2024/01/13 12:44:44;;;;;;;18.98;9.48;;;;;;;2.04;100.00;102131.19;4958171;29;20524;-86
2024/01/13 12:47:12;;;;;;;19.02;9.65;;;;;;;2.08;100.00;102127.97;4957647;29;20078;-86
2024/01/13 12:49:37;;;;;;;19.70;9.48;;;;;;;2.08;100.00;102124.50;4957970;29;20531;-81
2024/01/13 12:52:03;;;;;;;20.13;10.13;;;;;;;2.04;100.00;102131.19;4958757;29;20023;-87
2024/01/13 12:54:28;;;;;;;22.77;12.00;;;;;;;2.07;100.00;102127.88;4958111;29;20032;-87
2024/01/13 12:56:53;;;;;;;21.42;10.93;;;;;;;2.02;100.00;102127.69;4957575;29;20038;-86
2024/01/13 12:59:19;;;;;;;20.90;10.77;;;;;;;2.06;100.00;102113.31;4957931;29;20023;-85
2024/01/13 13:01:45;;;;;;;22.83;11.35;;;;;;;2.06;100.00;102127.00;4956789;29;20110;-86
2024/01/13 13:04:10;;;;;;;21.55;10.73;;;;;;;2.08;100.00;102124.50;4957551;29;20500;-87
2024/01/13 13:06:36;;;;;;;20.33;9.82;;;;;;;2.07;100.00;102118.53;4957201;29;20030;-86
2024/01/13 13:09:03;;;;;;;20.58;9.82;;;;;;;2.07;100.00;102115.06;4956553;29;20035;-86
2024/01/13 13:11:28;;;;;;;21.45;10.68;;;;;;;2.07;100.00;102117.63;4957506;29;20035;-87
2024/01/13 13:13:53;;;;;;;22.13;11.25;;;;;;;2.08;100.00;102114.25;4957360;29;20035;-86
2024/01/13 13:16:19;;;;;;;26.88;14.38;;;;;;;2.05;100.00;102103.88;4956895;29;20031;-86
2024/01/13 13:18:47;;;;;;;25.13;13.27;;;;;;;2.03;100.00;102097.84;4957141;29;20447;-86
2024/01/13 13:22:18;;;;;;;26.40;13.93;;;;;;;2.04;100.00;102100.47;5172369;23;20039;-86
2024/01/13 13:24:45;;;;;;;27.50;14.50;;;;;;;1.93;100.00;102079.53;4957227;29;20043;-86
2024/01/13 13:27:29;;;;;;;29.23;15.77;;;;;;;2.02;100.00;102098.66;4951868;29;20512;-86
2024/01/13 13:30:15;;;;;;;28.92;15.40;;;;;;;2.02;100.00;102090.97;4956527;29;20034;-87
2024/01/13 13:32:41;;;;;;;31.67;17.05;;;;;;;1.86;100.00;102064.75;4957043;29;20055;-86
2024/01/13 13:35:28;;;;;;;30.95;16.65;;;;;;;2.00;100.00;102086.66;4957089;29;20036;-85
2024/01/13 13:38:32;;;;;;;29.98;16.33;;;;;;;1.76;100.00;102043.00;4956313;29;20023;-86
2024/01/13 13:41:17;;;;;;;29.50;15.50;;;;;;;1.81;100.00;102056.88;4939180;29;20043;-86
2024/01/13 13:44:11;;;;;;;29.73;16.00;;;;;;;2.02;100.00;102093.53;4955665;29;20039;-86